Time;durP1;ratioP1;P1;durP2;ratioP2;P2;SDS_P1;SDS_P2;PMS_P1;PMS_P2;Temp;Humidity;BMP_temperature;BMP_pressure;BME280_temperature;BME280_humidity;BME280_pressure;Samples;Min_cycle;Max_cycle;Signal;HPM_P1;HPM_P2
2023/03/24 00:01:52;;;;;;;0.20;0.20;;;10.40;99.90;;;;;;5035944;28;20030;-77
2023/03/24 00:04:18;;;;;;;0.20;0.20;;;10.40;99.90;;;;;;5036047;28;20584;-77
2023/03/24 00:06:43;;;;;;;0.10;0.10;;;10.30;99.90;;;;;;5036313;28;20033;-77
2023/03/24 00:09:10;;;;;;;0.20;0.20;;;10.30;99.90;;;;;;5018141;28;20079;-77
2023/03/24 00:11:35;;;;;;;0.10;0.10;;;10.30;99.90;;;;;;5036253;28;20028;-77
2023/03/24 00:14:02;;;;;;;0.20;0.20;;;10.30;99.90;;;;;;5036488;28;20101;-77
2023/03/24 00:16:28;;;;;;;0.10;0.10;;;10.20;99.90;;;;;;5036261;28;20045;-77
2023/03/24 00:18:54;;;;;;;0.20;0.20;;;10.20;99.90;;;;;;5035522;28;20080;-77
2023/03/24 00:21:23;;;;;;;0.20;0.20;;;10.10;99.90;;;;;;5018391;28;20025;-77
2023/03/24 00:23:49;;;;;;;0.20;0.20;;;10.10;99.90;;;;;;5018548;28;20092;-77
2023/03/24 00:26:16;;;;;;;0.10;0.10;;;10.00;99.90;;;;;;5036073;28;20045;-77
2023/03/24 00:28:44;;;;;;;0.15;0.15;;;10.00;99.90;;;;;;5035841;28;20025;-77
2023/03/24 00:31:10;;;;;;;0.10;0.10;;;10.00;99.90;;;;;;5035606;28;20032;-76
2023/03/24 00:33:36;;;;;;;0.10;0.10;;;10.00;99.90;;;;;;5017806;28;20115;-76
2023/03/24 00:36:04;;;;;;;0.20;0.20;;;9.90;99.90;;;;;;5036089;28;20057;-76
2023/03/24 00:38:33;;;;;;;0.15;0.15;;;9.90;99.90;;;;;;5035734;28;20033;-76
2023/03/24 00:40:59;;;;;;;0.17;0.17;;;9.90;99.90;;;;;;5017835;28;20022;-77
2023/03/24 00:43:24;;;;;;;0.20;0.20;;;9.80;99.90;;;;;;5035631;28;20502;-76
2023/03/24 00:45:57;;;;;;;0.20;0.20;;;9.80;99.90;;;;;;5034996;28;20029;-76
2023/03/24 00:48:24;;;;;;;0.13;0.13;;;10.00;99.90;;;;;;5017885;28;20060;-76
2023/03/24 00:50:50;;;;;;;0.10;0.10;;;9.80;99.90;;;;;;5035551;28;20030;-76
2023/03/24 00:53:18;;;;;;;0.10;0.10;;;9.90;99.90;;;;;;5034880;28;20021;-76
2023/03/24 00:55:46;;;;;;;0.20;0.20;;;9.80;99.90;;;;;;5035700;28;20030;-76
2023/03/24 00:58:17;;;;;;;0.10;0.10;;;9.80;99.90;;;;;;5016552;28;20022;-76
2023/03/24 01:00:47;;;;;;;0.10;0.10;;;9.90;99.90;;;;;;5035454;28;20041;-76
2023/03/24 01:03:14;;;;;;;0.10;0.10;;;9.80;99.90;;;;;;5035238;28;20037;-76
2023/03/24 01:05:41;;;;;;;0.10;0.10;;;9.80;99.90;;;;;;5035261;28;20022;-76
2023/03/24 01:08:09;;;;;;;0.10;0.10;;;9.80;99.90;;;;;;5017295;28;20021;-75
2023/03/24 01:10:51;;;;;;;0.10;0.10;;;9.80;99.90;;;;;;5036449;28;20018;-75
2023/03/24 01:13:27;;;;;;;0.20;0.20;;;9.70;99.90;;;;;;5018994;28;20041;-75
2023/03/24 01:15:54;;;;;;;0.10;0.10;;;9.70;99.90;;;;;;5037067;28;20022;-75
2023/03/24 01:18:22;;;;;;;0.10;0.10;;;9.70;99.90;;;;;;5035191;28;20017;-76
2023/03/24 01:20:48;;;;;;;0.15;0.15;;;9.80;99.90;;;;;;5034945;28;20029;-75
2023/03/24 01:23:20;;;;;;;0.20;0.20;;;9.80;99.90;;;;;;5034139;28;20117;-76
2023/03/24 01:25:47;;;;;;;0.20;0.20;;;9.80;99.90;;;;;;5034909;28;20021;-75
2023/03/24 01:28:15;;;;;;;0.10;0.10;;;9.80;99.90;;;;;;5035138;28;20026;-76
2023/03/24 01:30:41;;;;;;;0.10;0.10;;;9.70;99.90;;;;;;5034293;28;20104;-76
2023/03/24 01:33:08;;;;;;;0.10;0.10;;;9.70;99.90;;;;;;5016863;28;20072;-75
2023/03/24 01:35:34;;;;;;;0.10;0.10;;;9.80;99.90;;;;;;5014492;28;20033;-75
2023/03/24 01:38:00;;;;;;;0.10;0.10;;;9.90;99.90;;;;;;5034116;28;20550;-75
2023/03/24 01:40:29;;;;;;;0.10;0.10;;;9.80;99.90;;;;;;5034437;28;20036;-75
2023/03/24 01:42:55;;;;;;;0.10;0.10;;;9.90;99.90;;;;;;5016743;28;20044;-75
2023/03/24 01:45:47;;;;;;;0.15;0.15;;;9.90;99.90;;;;;;5034486;28;20076;-75
2023/03/24 01:48:22;;;;;;;0.10;0.10;;;9.80;99.90;;;;;;5034479;28;20021;-75
2023/03/24 01:50:55;;;;;;;0.10;0.10;;;10.00;99.90;;;;;;5034431;28;20025;-75
2023/03/24 01:53:26;;;;;;;0.10;0.10;;;9.90;99.90;;;;;;5016106;28;20108;-75
2023/03/24 01:55:53;;;;;;;0.10;0.10;;;9.90;99.90;;;;;;5034659;28;20030;-76
2023/03/24 01:58:19;;;;;;;0.20;0.20;;;10.00;99.90;;;;;;5034479;28;20481;-75
2023/03/24 02:00:45;;;;;;;0.10;0.10;;;9.90;99.90;;;;;;5016010;28;20029;-75
2023/03/24 02:03:19;;;;;;;0.10;0.10;;;10.00;99.90;;;;;;5013586;28;20068;-75
2023/03/24 02:05:48;;;;;;;0.10;0.10;;;10.00;99.90;;;;;;5014462;28;20025;-75
2023/03/24 02:08:29;;;;;;;0.10;0.10;;;9.90;99.90;;;;;;5014283;28;20037;-75
2023/03/24 02:10:55;;;;;;;0.10;0.10;;;10.00;99.90;;;;;;5013880;28;20022;-75
2023/03/24 02:13:22;;;;;;;0.10;0.10;;;9.90;99.90;;;;;;5014217;28;20479;-75
2023/03/24 02:16:03;;;;;;;0.10;0.10;;;10.00;99.90;;;;;;5014279;28;20030;-75
2023/03/24 02:19:14;;;;;;;0.10;0.10;;;10.10;99.90;;;;;;5014399;28;20025;-75
2023/03/24 02:22:06;;;;;;;0.10;0.10;;;10.00;99.90;;;;;;5014539;28;20050;-75
2023/03/24 02:24:44;;;;;;;0.10;0.10;;;10.00;99.90;;;;;;4996222;28;20108;-75
2023/03/24 02:27:25;;;;;;;0.10;0.10;;;10.00;99.90;;;;;;5012916;28;20025;-76
2023/03/24 02:30:09;;;;;;;0.10;0.10;;;10.00;99.90;;;;;;5014245;28;20105;-75
2023/03/24 02:33:01;;;;;;;0.10;0.10;;;10.00;99.90;;;;;;5014507;28;20391;-75
2023/03/24 02:35:35;;;;;;;0.10;0.10;;;10.00;99.90;;;;;;5014662;28;20468;-75
2023/03/24 02:38:52;;;;;;;0.10;0.10;;;10.00;99.90;;;;;;5012875;28;20399;-75
2023/03/24 02:41:42;;;;;;;0.10;0.10;;;10.00;99.90;;;;;;4934379;29;20075;-75
2023/03/24 02:44:13;;;;;;;0.10;0.10;;;10.10;99.90;;;;;;5013995;28;20021;-76
2023/03/24 02:47:11;;;;;;;0.10;0.10;;;10.10;99.90;;;;;;5014171;28;20054;-75
2023/03/24 02:49:55;;;;;;;0.10;0.10;;;10.00;99.90;;;;;;4995842;28;20598;-76
2023/03/24 02:52:29;;;;;;;0.10;0.10;;;10.10;99.90;;;;;;5014202;28;20072;-76
2023/03/24 02:55:04;;;;;;;0.10;0.10;;;10.10;99.90;;;;;;5012846;28;20403;-75
2023/03/24 02:57:37;;;;;;;0.10;0.10;;;10.20;99.90;;;;;;4996140;28;20030;-75
2023/03/24 03:00:08;;;;;;;0.10;0.10;;;10.10;99.90;;;;;;5014314;28;20030;-75
2023/03/24 03:02:40;;;;;;;0.05;0.05;;;10.20;99.90;;;;;;4996650;28;20088;-75
2023/03/24 03:05:12;;;;;;;0.10;0.10;;;10.20;99.90;;;;;;5014088;28;20022;-75
2023/03/24 03:07:40;;;;;;;0.10;0.10;;;10.10;99.90;;;;;;4996273;28;20022;-75
2023/03/24 03:10:14;;;;;;;0.10;0.10;;;10.20;99.90;;;;;;5013533;28;20029;-75
2023/03/24 03:12:43;;;;;;;0.10;0.10;;;10.20;99.90;;;;;;5013948;28;20025;-75
2023/03/24 03:15:15;;;;;;;0.10;0.10;;;10.30;99.90;;;;;;5013757;28;20484;-75
2023/03/24 03:17:47;;;;;;;0.10;0.10;;;10.20;99.90;;;;;;4996267;28;20076;-75
2023/03/24 03:20:19;;;;;;;0.10;0.10;;;10.20;99.90;;;;;;5013724;28;20476;-75
2023/03/24 03:22:50;;;;;;;0.10;0.10;;;10.20;99.90;;;;;;5015602;28;20055;-75
2023/03/24 03:25:23;;;;;;;0.10;0.10;;;10.20;99.90;;;;;;5017621;28;20018;-75
2023/03/24 03:27:51;;;;;;;0.15;0.15;;;10.30;99.90;;;;;;5017537;28;20022;-75
2023/03/24 03:30:32;;;;;;;0.10;0.10;;;10.20;99.90;;;;;;5016772;28;20034;-75
2023/03/24 03:33:12;;;;;;;0.10;0.10;;;10.20;99.90;;;;;;5017563;28;20029;-74
2023/03/24 03:35:44;;;;;;;0.10;0.10;;;10.30;99.90;;;;;;5017476;28;20045;-75
2023/03/24 03:38:21;;;;;;;0.10;0.10;;;10.30;99.90;;;;;;5018625;28;20422;-74
2023/03/24 03:41:01;;;;;;;0.10;0.10;;;10.30;99.90;;;;;;5029895;28;20022;-74
2023/03/24 03:43:29;;;;;;;0.10;0.10;;;10.30;99.90;;;;;;5031772;28;20026;-74
2023/03/24 03:45:54;;;;;;;0.10;0.10;;;10.30;99.90;;;;;;5016679;28;20038;-74
2023/03/24 03:48:20;;;;;;;0.10;0.10;;;10.30;99.90;;;;;;5029584;28;20018;-74
2023/03/24 03:50:46;;;;;;;0.10;0.10;;;10.40;99.90;;;;;;5036689;28;20026;-74
2023/03/24 03:53:19;;;;;;;0.10;0.10;;;10.30;99.90;;;;;;5027123;28;20450;-74
2023/03/24 03:55:46;;;;;;;0.03;0.03;;;10.20;99.90;;;;;;4999000;28;20029;-73
2023/03/24 03:58:11;;;;;;;0.10;0.10;;;10.30;99.90;;;;;;5029648;28;20100;-74
2023/03/24 04:00:38;;;;;;;0.10;0.10;;;10.30;99.90;;;;;;5036494;28;20431;-73
2023/03/24 04:03:49;;;;;;;0.10;0.10;;;10.30;99.90;;;;;;5015251;28;20101;-73
2023/03/24 04:06:43;;;;;;;0.10;0.10;;;10.30;99.90;;;;;;4980746;28;20104;-74
2023/03/24 04:09:27;;;;;;;0.10;0.10;;;10.30;99.90;;;;;;5015844;28;20113;-73
2023/03/24 04:12:14;;;;;;;0.10;0.10;;;10.30;99.90;;;;;;5028591;28;20030;-74
2023/03/24 04:14:57;;;;;;;0.00;0.00;;;10.30;99.90;;;;;;5036111;28;20029;-74
2023/03/24 04:17:32;;;;;;;0.10;0.10;;;10.30;99.90;;;;;;5036059;28;20075;-74
2023/03/24 04:20:45;;;;;;;0.10;0.10;;;10.30;99.90;;;;;;5032073;28;20037;-74
2023/03/24 04:23:25;;;;;;;0.08;0.08;;;10.20;99.90;;;;;;5050736;23;20065;-74
2023/03/24 04:26:13;;;;;;;0.10;0.10;;;10.30;99.90;;;;;;5015260;28;20141;-74
2023/03/24 04:28:58;;;;;;;0.10;0.10;;;10.30;99.90;;;;;;4996225;28;20105;-74
2023/03/24 04:31:32;;;;;;;0.10;0.10;;;10.30;99.90;;;;;;5010919;28;20029;-74
2023/03/24 04:34:04;;;;;;;0.10;0.10;;;10.30;99.90;;;;;;5004945;28;20021;-74
2023/03/24 04:36:42;;;;;;;0.10;0.10;;;10.30;99.90;;;;;;5014870;28;20550;-74
2023/03/24 04:39:13;;;;;;;0.10;0.10;;;10.30;99.90;;;;;;5014905;28;20029;-73
2023/03/24 04:41:41;;;;;;;0.10;0.10;;;10.30;99.90;;;;;;5009594;28;20026;-73
2023/03/24 04:44:09;;;;;;;0.10;0.10;;;10.30;99.90;;;;;;5024569;28;20483;-73
2023/03/24 04:46:36;;;;;;;0.05;0.05;;;10.30;99.90;;;;;;5015090;28;20022;-73
2023/03/24 04:49:03;;;;;;;0.10;0.10;;;10.40;99.90;;;;;;5030289;28;20036;-74
2023/03/24 04:51:31;;;;;;;0.10;0.10;;;10.30;99.90;;;;;;5015057;28;20026;-74
2023/03/24 04:53:57;;;;;;;0.10;0.10;;;10.40;99.90;;;;;;5014860;28;20038;-73
2023/03/24 04:56:28;;;;;;;0.10;0.10;;;10.40;99.90;;;;;;5014903;28;20094;-73
2023/03/24 04:58:54;;;;;;;0.10;0.10;;;10.40;99.90;;;;;;5014112;28;20529;-73
2023/03/24 05:01:20;;;;;;;0.10;0.10;;;10.40;99.90;;;;;;5014776;28;20034;-74
2023/03/24 05:03:46;;;;;;;0.10;0.10;;;10.40;99.90;;;;;;5015689;28;20480;-73
2023/03/24 05:06:12;;;;;;;0.10;0.10;;;10.50;99.90;;;;;;5025314;28;20172;-73
2023/03/24 05:08:38;;;;;;;0.10;0.10;;;10.50;99.90;;;;;;5018811;28;20535;-74
2023/03/24 05:11:04;;;;;;;0.10;0.10;;;10.50;99.90;;;;;;5014705;28;20026;-74
2023/03/24 05:13:30;;;;;;;0.10;0.10;;;10.50;99.90;;;;;;5014523;28;20030;-74
2023/03/24 05:15:56;;;;;;;0.10;0.10;;;10.50;99.90;;;;;;5014465;28;20186;-74
2023/03/24 05:18:21;;;;;;;0.10;0.10;;;10.60;99.90;;;;;;5013937;28;20451;-74
2023/03/24 05:20:47;;;;;;;0.00;0.00;;;10.60;99.90;;;;;;5014415;28;20076;-73
2023/03/24 05:23:12;;;;;;;0.10;0.10;;;10.50;99.90;;;;;;5014286;28;20380;-73
2023/03/24 05:25:38;;;;;;;0.00;0.00;;;10.50;99.90;;;;;;5014343;28;20360;-73
2023/03/24 05:28:04;;;;;;;0.10;0.10;;;10.50;99.90;;;;;;5013845;28;20493;-73
2023/03/24 05:30:29;;;;;;;0.10;0.10;;;10.60;99.90;;;;;;5029525;28;20104;-73
2023/03/24 05:32:55;;;;;;;0.10;0.10;;;10.60;99.90;;;;;;5014535;28;20495;-73
2023/03/24 05:35:21;;;;;;;0.10;0.10;;;10.60;99.90;;;;;;5014301;28;20033;-73
2023/03/24 05:37:46;;;;;;;0.03;0.03;;;10.70;99.90;;;;;;5013934;28;20060;-73
2023/03/24 05:40:13;;;;;;;0.10;0.10;;;10.70;99.90;;;;;;5013616;28;20117;-73
2023/03/24 05:42:39;;;;;;;0.00;0.00;;;10.70;99.90;;;;;;5013736;28;20040;-72
2023/03/24 05:45:05;;;;;;;0.10;0.10;;;10.70;99.90;;;;;;5009368;28;20101;-73
2023/03/24 05:47:31;;;;;;;0.10;0.10;;;10.70;99.90;;;;;;5017992;28;20028;-72
2023/03/24 05:49:56;;;;;;;0.10;0.10;;;10.70;99.90;;;;;;5033571;28;20025;-73
2023/03/24 05:52:22;;;;;;;0.10;0.10;;;10.70;99.90;;;;;;5033078;28;20036;-72
2023/03/24 05:54:50;;;;;;;0.10;0.10;;;10.60;99.90;;;;;;5019951;28;20048;-72
2023/03/24 05:57:16;;;;;;;0.10;0.10;;;10.50;99.90;;;;;;5025103;28;20017;-73
2023/03/24 05:59:42;;;;;;;0.10;0.10;;;10.50;99.90;;;;;;5013594;28;20088;-73
2023/03/24 06:02:08;;;;;;;0.10;0.10;;;10.50;99.90;;;;;;5017503;28;20030;-73
2023/03/24 06:04:34;;;;;;;0.10;0.10;;;10.40;99.90;;;;;;5026999;28;20021;-73
2023/03/24 06:06:59;;;;;;;0.20;0.20;;;10.30;99.90;;;;;;5013624;28;20101;-73
2023/03/24 06:09:31;;;;;;;0.10;0.10;;;10.30;99.90;;;;;;5013268;28;20072;-72
2023/03/24 06:11:59;;;;;;;0.10;0.10;;;10.10;99.90;;;;;;5014406;28;20072;-73
2023/03/24 06:14:25;;;;;;;0.10;0.10;;;10.00;99.90;;;;;;5013720;28;20053;-73
2023/03/24 06:16:50;;;;;;;0.10;0.10;;;9.90;99.90;;;;;;5013128;28;20030;-73
2023/03/24 06:19:17;;;;;;;0.10;0.10;;;9.70;99.90;;;;;;5025762;28;20037;-73
2023/03/24 06:21:43;;;;;;;0.10;0.10;;;9.70;99.90;;;;;;5033267;28;20395;-73
2023/03/24 06:24:13;;;;;;;0.15;0.15;;;9.60;99.90;;;;;;5029488;28;20105;-73
2023/03/24 06:26:40;;;;;;;0.10;0.10;;;9.50;99.90;;;;;;5014187;28;20037;-73
2023/03/24 06:29:07;;;;;;;0.10;0.10;;;9.40;99.90;;;;;;5013644;28;20029;-73
2023/03/24 06:31:34;;;;;;;0.10;0.10;;;9.40;99.90;;;;;;5013459;28;20034;-73
2023/03/24 06:34:00;;;;;;;0.10;0.10;;;9.30;99.90;;;;;;5013030;28;20061;-74
2023/03/24 06:36:25;;;;;;;0.10;0.10;;;9.20;99.90;;;;;;5015594;28;20427;-73
2023/03/24 06:38:51;;;;;;;0.10;0.10;;;9.20;99.90;;;;;;5020901;28;20399;-74
2023/03/24 06:41:17;;;;;;;0.10;0.10;;;9.20;99.90;;;;;;5002331;28;20025;-74
2023/03/24 06:43:42;;;;;;;0.10;0.10;;;9.10;99.90;;;;;;5019498;28;20030;-73
2023/03/24 06:46:08;;;;;;;0.10;0.10;;;9.00;99.90;;;;;;5012055;28;20104;-74
2023/03/24 06:48:34;;;;;;;0.20;0.20;;;8.90;99.90;;;;;;5013818;28;20018;-73
2023/03/24 06:51:00;;;;;;;0.20;0.20;;;8.90;99.90;;;;;;5013320;28;20110;-74
2023/03/24 06:53:26;;;;;;;0.17;0.17;;;8.80;99.90;;;;;;5028194;28;20476;-74
2023/03/24 06:55:51;;;;;;;0.20;0.20;;;8.70;99.90;;;;;;5029658;28;20060;-74
2023/03/24 06:58:17;;;;;;;0.10;0.10;;;8.60;99.90;;;;;;5016481;28;20041;-73
2023/03/24 07:00:45;;;;;;;0.20;0.20;;;8.60;99.90;;;;;;5016937;28;20025;-74
2023/03/24 07:03:12;;;;;;;0.10;0.10;;;8.60;99.90;;;;;;5017050;28;20045;-73
2023/03/24 07:05:39;;;;;;;0.10;0.10;;;8.60;99.90;;;;;;5016731;28;20026;-73
2023/03/24 07:08:04;;;;;;;0.10;0.10;;;8.70;99.90;;;;;;5026270;28;20021;-73
2023/03/24 07:10:30;;;;;;;0.10;0.10;;;8.70;99.90;;;;;;5020526;28;20026;-73
2023/03/24 07:12:56;;;;;;;0.10;0.10;;;8.70;99.90;;;;;;5016209;28;20026;-74
2023/03/24 07:15:22;;;;;;;0.15;0.15;;;8.70;99.90;;;;;;5016962;28;20058;-74
2023/03/24 07:17:48;;;;;;;0.15;0.15;;;8.70;99.90;;;;;;5028949;28;20526;-73
2023/03/24 07:20:14;;;;;;;0.10;0.10;;;8.70;99.90;;;;;;4997138;28;20042;-74
2023/03/24 07:22:40;;;;;;;0.10;0.10;;;8.80;99.90;;;;;;5013983;28;20507;-74
2023/03/24 07:25:06;;;;;;;0.20;0.20;;;8.80;99.90;;;;;;5016521;28;20034;-73
2023/03/24 07:27:33;;;;;;;0.20;0.20;;;8.90;99.90;;;;;;5035288;28;20032;-73
2023/03/24 07:29:59;;;;;;;0.20;0.20;;;8.90;99.90;;;;;;5032645;28;20030;-74
2023/03/24 07:32:24;;;;;;;0.20;0.20;;;8.90;99.90;;;;;;5016444;28;20030;-74
2023/03/24 07:34:50;;;;;;;0.10;0.10;;;8.90;99.90;;;;;;5020943;28;20037;-74
2023/03/24 07:37:16;;;;;;;0.20;0.20;;;9.00;99.90;;;;;;5024201;28;20061;-74
2023/03/24 07:39:41;;;;;;;0.10;0.10;;;8.90;99.90;;;;;;5016677;28;20068;-74
2023/03/24 07:42:07;;;;;;;0.20;0.20;;;8.90;99.90;;;;;;5016318;28;20468;-74
2023/03/24 07:44:32;;;;;;;0.10;0.10;;;9.00;99.90;;;;;;5022048;28;20022;-74
2023/03/24 07:46:58;;;;;;;0.10;0.10;;;9.00;99.90;;;;;;5035439;28;20079;-74
2023/03/24 07:49:23;;;;;;;0.20;0.20;;;9.10;99.90;;;;;;5034789;28;20079;-73
2023/03/24 07:51:49;;;;;;;0.20;0.20;;;9.00;99.90;;;;;;5019765;28;20065;-74
2023/03/24 07:54:14;;;;;;;0.20;0.20;;;9.00;99.90;;;;;;5015926;28;20121;-74
2023/03/24 07:56:40;;;;;;;0.10;0.10;;;9.00;99.90;;;;;;5015921;28;20030;-74
2023/03/24 07:59:08;;;;;;;0.20;0.20;;;9.00;99.90;;;;;;5014240;28;20040;-74
2023/03/24 08:01:35;;;;;;;0.10;0.10;;;9.10;99.90;;;;;;5021029;28;20716;-74
2023/03/24 08:04:02;;;;;;;0.10;0.10;;;9.10;99.90;;;;;;5011376;28;20448;-74
2023/03/24 08:06:28;;;;;;;0.10;0.10;;;9.10;99.90;;;;;;5015902;28;20045;-74
2023/03/24 08:08:54;;;;;;;0.20;0.20;;;9.10;99.90;;;;;;5030465;28;20487;-74
2023/03/24 08:11:20;;;;;;;0.20;0.20;;;9.20;99.90;;;;;;5015855;28;20084;-75
2023/03/24 08:13:46;;;;;;;0.10;0.10;;;9.20;99.90;;;;;;5015219;28;20515;-74
2023/03/24 08:16:11;;;;;;;0.10;0.10;;;9.30;99.90;;;;;;5015809;28;20041;-74
2023/03/24 08:18:37;;;;;;;0.17;0.17;;;9.30;99.90;;;;;;5015684;28;20030;-75
2023/03/24 08:21:03;;;;;;;0.20;0.20;;;9.20;99.90;;;;;;5015723;28;20018;-75
2023/03/24 08:23:29;;;;;;;0.10;0.10;;;9.20;99.90;;;;;;5014693;28;20034;-74
2023/03/24 08:25:55;;;;;;;0.10;0.10;;;9.20;99.90;;;;;;5015642;28;20545;-74
2023/03/24 08:28:20;;;;;;;0.20;0.20;;;9.10;99.90;;;;;;5015266;28;20052;-75
2023/03/24 08:30:46;;;;;;;0.20;0.20;;;9.00;99.90;;;;;;5015380;28;20037;-75
2023/03/24 08:33:13;;;;;;;0.20;0.20;;;9.10;99.90;;;;;;5015548;28;20044;-75
2023/03/24 08:35:39;;;;;;;0.10;0.10;;;9.10;99.90;;;;;;5014891;28;20022;-73
2023/03/24 08:38:07;;;;;;;0.20;0.20;;;9.10;99.90;;;;;;5015207;28;20026;-74
2023/03/24 08:40:33;;;;;;;0.17;0.17;;;9.10;99.90;;;;;;5015179;28;20026;-75
2023/03/24 08:43:02;;;;;;;0.20;0.20;;;9.10;99.90;;;;;;5014911;28;20022;-75
2023/03/24 08:45:30;;;;;;;0.20;0.20;;;9.10;99.90;;;;;;5015049;28;20545;-75
2023/03/24 08:47:59;;;;;;;0.20;0.20;;;9.00;99.90;;;;;;5015014;28;20030;-75
2023/03/24 08:50:28;;;;;;;0.20;0.20;;;9.10;99.90;;;;;;5029838;28;20026;-74
2023/03/24 08:52:55;;;;;;;0.20;0.20;;;9.10;99.90;;;;;;5014881;28;20041;-74
2023/03/24 08:55:21;;;;;;;0.10;0.10;;;9.00;99.90;;;;;;5038208;28;20500;-75
2023/03/24 08:57:47;;;;;;;0.20;0.20;;;9.10;99.90;;;;;;5020269;28;20068;-74
2023/03/24 09:00:14;;;;;;;0.20;0.20;;;9.10;99.90;;;;;;5013721;28;20112;-74
2023/03/24 09:02:44;;;;;;;0.10;0.10;;;9.10;99.90;;;;;;5026619;28;20032;-75
2023/03/24 09:05:10;;;;;;;0.10;0.10;;;9.10;99.90;;;;;;5014785;28;20072;-75
2023/03/24 09:07:36;;;;;;;0.20;0.20;;;9.20;99.90;;;;;;5032657;28;20487;-75
2023/03/24 09:10:02;;;;;;;0.10;0.10;;;9.20;99.90;;;;;;5034607;28;20042;-75
2023/03/24 09:12:28;;;;;;;0.10;0.10;;;9.20;99.90;;;;;;5014303;28;20038;-74
2023/03/24 09:14:53;;;;;;;0.20;0.20;;;9.20;99.90;;;;;;5014431;28;20029;-75
2023/03/24 09:17:19;;;;;;;0.20;0.20;;;9.20;99.90;;;;;;5014574;28;20026;-75
2023/03/24 09:19:46;;;;;;;0.10;0.10;;;9.20;99.90;;;;;;5013385;28;20030;-75
2023/03/24 09:22:11;;;;;;;0.20;0.20;;;9.20;99.90;;;;;;5014240;28;20049;-75
2023/03/24 09:24:37;;;;;;;0.10;0.10;;;9.10;99.90;;;;;;5029211;28;20061;-75
2023/03/24 09:27:03;;;;;;;0.15;0.15;;;9.10;99.90;;;;;;5014443;28;20472;-75
2023/03/24 09:29:29;;;;;;;0.10;0.10;;;9.10;99.90;;;;;;5029516;28;20089;-75
2023/03/24 09:31:56;;;;;;;0.20;0.20;;;9.10;99.90;;;;;;5014012;28;20550;-75
2023/03/24 09:34:22;;;;;;;0.10;0.10;;;9.20;99.90;;;;;;5014268;28;20054;-75
2023/03/24 09:36:48;;;;;;;0.10;0.10;;;9.20;99.90;;;;;;5013798;28;20041;-73
2023/03/24 09:39:13;;;;;;;0.20;0.20;;;9.20;99.90;;;;;;5014445;28;20456;-79
2023/03/24 09:41:40;;;;;;;0.20;0.20;;;9.10;99.90;;;;;;5014911;28;20061;-74
2023/03/24 09:44:23;;;;;;;0.10;0.10;;;9.20;99.90;;;;;;5014187;28;20075;-74
2023/03/24 09:47:14;;;;;;;0.20;0.20;;;9.20;99.90;;;;;;5013762;28;20546;-74
2023/03/24 09:49:43;;;;;;;0.10;0.10;;;9.30;99.90;;;;;;5003385;28;20049;-74
2023/03/24 09:52:15;;;;;;;0.10;0.10;;;9.40;99.90;;;;;;5013877;28;20029;-74
2023/03/24 09:54:53;;;;;;;0.10;0.10;;;9.40;99.90;;;;;;5029125;28;20033;-74
2023/03/24 09:57:37;;;;;;;0.10;0.10;;;9.50;99.90;;;;;;5013511;28;20109;-74
2023/03/24 10:00:15;;;;;;;;;;;9.50;99.90;;;;;;5014311;28;20457;-74
2023/03/24 10:02:41;;;;;;;0.20;0.20;;;9.50;99.90;;;;;;4996934;28;20352;-74
2023/03/24 10:05:36;;;;;;;0.20;0.20;;;9.60;99.90;;;;;;5010892;28;20045;-74
2023/03/24 10:08:33;;;;;;;0.13;0.13;;;9.70;99.90;;;;;;5006557;28;20034;-74
2023/03/24 10:11:17;;;;;;;0.13;0.13;;;9.70;99.90;;;;;;4973420;28;20121;-72
2023/03/24 10:13:50;;;;;;;;;;;9.90;99.90;;;;;;5033092;28;20514;-73
2023/03/24 10:16:32;;;;;;;0.10;0.10;;;9.80;99.90;;;;;;5031483;28;19917;-73
2023/03/24 10:19:03;;;;;;;0.10;0.10;;;9.90;99.90;;;;;;5032990;28;20104;-74
2023/03/24 10:21:34;;;;;;;0.10;0.10;;;10.10;99.90;;;;;;5033091;28;20041;-76
2023/03/24 10:24:24;;;;;;;0.20;0.20;;;10.10;99.90;;;;;;5033127;28;20026;-75
2023/03/24 10:27:19;;;;;;;0.10;0.10;;;10.30;99.90;;;;;;5031786;28;20159;-75
2023/03/24 10:29:48;;;;;;;0.10;0.10;;;10.30;99.90;;;;;;5032629;28;20037;-75
2023/03/24 10:32:18;;;;;;;0.13;0.13;;;10.30;99.90;;;;;;5032965;28;20493;-75
2023/03/24 10:34:59;;;;;;;0.10;0.10;;;10.30;99.90;;;;;;5033382;28;20066;-75
2023/03/24 10:37:27;;;;;;;0.20;0.20;;;10.30;99.90;;;;;;5033505;28;20018;-76
2023/03/24 10:39:53;;;;;;;0.20;0.20;;;10.20;99.90;;;;;;5032201;28;20068;-75
2023/03/24 10:42:24;;;;;;;0.10;0.10;;;10.20;99.90;;;;;;5033066;28;20048;-75
2023/03/24 10:44:51;;;;;;;0.20;0.20;;;10.30;99.90;;;;;;5032913;28;20418;-75
2023/03/24 10:47:23;;;;;;;0.13;0.13;;;10.30;99.90;;;;;;5057669;22;20131;-73
2023/03/24 10:49:58;;;;;;;0.10;0.10;;;10.20;99.90;;;;;;5033684;28;20060;-73
2023/03/24 10:52:24;;;;;;;0.20;0.20;;;10.10;99.90;;;;;;5034156;28;20030;-73
2023/03/24 10:54:56;;;;;;;0.15;0.15;;;10.10;99.90;;;;;;5031787;28;20033;-73
2023/03/24 10:57:22;;;;;;;0.10;0.10;;;10.10;99.90;;;;;;5032374;28;20060;-73
2023/03/24 10:59:59;;;;;;;0.20;0.20;;;10.00;99.90;;;;;;5033306;28;20737;-73
2023/03/24 11:02:25;;;;;;;0.10;0.10;;;10.10;99.90;;;;;;5033742;28;20025;-73
2023/03/24 11:05:17;;;;;;;0.20;0.20;;;10.10;99.90;;;;;;5032416;28;20434;-73
2023/03/24 11:07:48;;;;;;;0.20;0.20;;;10.10;99.90;;;;;;5033411;28;20068;-73
2023/03/24 11:10:23;;;;;;;0.20;0.20;;;10.00;99.90;;;;;;5032371;28;20462;-73
2023/03/24 11:12:57;;;;;;;0.20;0.20;;;10.10;99.90;;;;;;5033409;28;20482;-74
2023/03/24 11:15:28;;;;;;;0.20;0.20;;;10.10;99.90;;;;;;5033729;28;20441;-74
2023/03/24 11:18:11;;;;;;;0.10;0.10;;;10.20;99.90;;;;;;5033560;28;20087;-74
2023/03/24 11:20:44;;;;;;;0.20;0.20;;;10.30;99.90;;;;;;5032973;28;20022;-73
2023/03/24 11:23:18;;;;;;;0.10;0.10;;;10.20;99.90;;;;;;5033500;28;20025;-73
2023/03/24 11:26:07;;;;;;;0.20;0.20;;;10.20;99.90;;;;;;5033733;28;20018;-73
2023/03/24 11:28:39;;;;;;;0.20;0.20;;;10.20;99.90;;;;;;5032741;28;20553;-73
2023/03/24 11:31:07;;;;;;;0.20;0.20;;;10.40;99.90;;;;;;5031688;28;20029;-74
2023/03/24 11:33:40;;;;;;;0.20;0.20;;;10.40;99.90;;;;;;5033576;28;20101;-73
2023/03/24 11:36:38;;;;;;;0.10;0.10;;;10.30;99.90;;;;;;5033472;28;20084;-73
2023/03/24 11:39:07;;;;;;;0.20;0.20;;;10.30;99.90;;;;;;5033557;28;20033;-73
2023/03/24 11:41:34;;;;;;;0.20;0.20;;;10.40;99.90;;;;;;5029455;28;20105;-73
2023/03/24 11:44:24;;;;;;;0.20;0.20;;;10.50;99.90;;;;;;5034180;28;20029;-73
2023/03/24 11:47:06;;;;;;;0.20;0.20;;;10.50;99.90;;;;;;5032069;28;20057;-73
2023/03/24 11:49:37;;;;;;;0.10;0.10;;;10.70;99.90;;;;;;5016790;28;20029;-73
2023/03/24 11:52:05;;;;;;;0.20;0.20;;;10.60;99.90;;;;;;5025523;28;20038;-72
2023/03/24 11:54:35;;;;;;;0.20;0.20;;;10.70;99.90;;;;;;5028629;28;20077;-72
2023/03/24 11:57:10;;;;;;;0.20;0.20;;;10.70;99.90;;;;;;5027002;28;20040;-73
2023/03/24 11:59:50;;;;;;;0.20;0.20;;;10.70;99.90;;;;;;5031391;28;20029;-73
2023/03/24 12:02:35;;;;;;;0.20;0.20;;;10.70;99.90;;;;;;5036401;28;20398;-73
2023/03/24 12:05:22;;;;;;;0.20;0.20;;;10.60;99.90;;;;;;5032021;28;20018;-73
2023/03/24 12:08:07;;;;;;;0.20;0.20;;;10.80;99.90;;;;;;5028363;28;20073;-73
2023/03/24 12:11:07;;;;;;;0.20;0.20;;;11.30;99.90;;;;;;5035994;28;20021;-74
2023/03/24 12:13:39;;;;;;;0.20;0.20;;;11.30;99.90;;;;;;5036232;28;20110;-73
2023/03/24 12:16:26;;;;;;;0.17;0.17;;;11.40;99.90;;;;;;5027496;28;20101;-73
2023/03/24 12:19:13;;;;;;;0.20;0.20;;;11.30;99.90;;;;;;5030160;28;20294;-74
2023/03/24 12:22:09;;;;;;;0.10;0.10;;;11.20;99.90;;;;;;5026808;28;20022;-73
2023/03/24 12:24:46;;;;;;;0.20;0.20;;;11.10;99.90;;;;;;5031853;28;20442;-73
2023/03/24 12:27:45;;;;;;;0.13;0.13;;;11.30;99.90;;;;;;5035698;28;20026;-73
2023/03/24 12:30:40;;;;;;;0.20;0.20;;;11.40;99.90;;;;;;5030224;28;20030;-73
2023/03/24 12:33:45;;;;;;;0.17;0.17;;;11.10;99.90;;;;;;5031425;28;20033;-74
2023/03/24 12:36:54;;;;;;;0.20;0.20;;;11.00;99.90;;;;;;5024808;28;20488;-74
2023/03/24 12:39:31;;;;;;;0.10;0.10;;;11.30;99.90;;;;;;5001065;28;20552;-73
2023/03/24 12:42:05;;;;;;;0.20;0.20;;;11.30;99.90;;;;;;5020883;28;20036;-74
2023/03/24 12:44:42;;;;;;;0.10;0.10;;;11.30;99.90;;;;;;5018155;28;20488;-73
2023/03/24 12:47:44;;;;;;;0.20;0.20;;;11.30;99.90;;;;;;5022745;28;20410;-73
2023/03/24 12:50:27;;;;;;;0.20;0.20;;;11.30;99.90;;;;;;5026400;28;20103;-74
2023/03/24 12:53:11;;;;;;;0.20;0.20;;;11.30;99.90;;;;;;5023591;28;20487;-74
2023/03/24 12:55:44;;;;;;;0.20;0.20;;;11.90;99.90;;;;;;5033420;28;20036;-73
2023/03/24 12:58:38;;;;;;;0.20;0.20;;;11.80;99.90;;;;;;5033038;28;20033;-73
2023/03/24 13:01:13;;;;;;;0.20;0.20;;;12.10;99.90;;;;;;5036385;28;20029;-74
2023/03/24 13:03:47;;;;;;;0.10;0.10;;;12.20;99.90;;;;;;5022646;28;20024;-74
2023/03/24 13:06:24;;;;;;;0.20;0.20;;;12.40;99.90;;;;;;5035378;28;20053;-73
2023/03/24 13:09:18;;;;;;;0.20;0.20;;;12.20;99.90;;;;;;5033211;28;20056;-74
2023/03/24 13:12:01;;;;;;;0.17;0.17;;;12.10;99.90;;;;;;5034989;28;20087;-73
2023/03/24 13:14:41;;;;;;;0.10;0.10;;;12.40;99.90;;;;;;5034822;28;20025;-73
2023/03/24 13:17:16;;;;;;;0.10;0.10;;;11.80;99.90;;;;;;5035086;28;20022;-74